createdAt,value
2023-05-02T00:02:34.984Z,14.77
2023-05-02T00:05:38.183Z,14.77
2023-05-02T00:08:48.382Z,14.81
2023-05-02T00:11:50.583Z,14.72
2023-05-02T00:14:57.319Z,14.60
2023-05-02T00:18:00.337Z,14.56
2023-05-02T00:21:02.862Z,14.57
2023-05-02T00:24:05.546Z,14.43
2023-05-02T00:27:08.056Z,14.42
2023-05-02T00:30:11.360Z,14.39
2023-05-02T00:33:16.038Z,14.28
2023-05-02T00:36:19.945Z,14.28
2023-05-02T00:39:22.477Z,14.30
2023-05-02T00:42:24.765Z,14.29
2023-05-02T00:45:31.454Z,14.24
2023-05-02T00:48:33.980Z,14.25
2023-05-02T00:51:36.362Z,14.26
2023-05-02T00:54:39.770Z,14.24
2023-05-02T00:57:41.999Z,14.33
2023-05-02T01:01:02.578Z,14.36
2023-05-02T01:04:30.172Z,14.32
2023-05-02T01:07:57.488Z,14.30
2023-05-02T01:11:15.199Z,14.32
2023-05-02T01:14:18.056Z,14.24
2023-05-02T01:17:31.159Z,14.22
2023-05-02T01:20:38.559Z,14.12
2023-05-02T01:24:10.866Z,14.11
2023-05-02T01:27:31.346Z,14.05
2023-05-02T01:30:43.332Z,13.98
2023-05-02T01:33:46.274Z,13.86
2023-05-02T01:36:59.272Z,13.74
2023-05-02T01:40:06.198Z,13.71
2023-05-02T01:43:09.383Z,13.61
2023-05-02T01:46:15.916Z,13.65
2023-05-02T01:49:24.154Z,13.64
2023-05-02T01:52:27.656Z,13.60
2023-05-02T01:55:29.928Z,13.51
2023-05-02T01:58:33.555Z,13.53
2023-05-02T02:01:37.999Z,13.50
2023-05-02T02:04:41.519Z,13.46
2023-05-02T02:07:53.661Z,13.50
2023-05-02T02:11:00.173Z,13.46
2023-05-02T02:14:08.539Z,13.50
2023-05-02T02:17:22.438Z,13.53
2023-05-02T02:20:26.877Z,13.42
2023-05-02T02:23:30.209Z,13.47
2023-05-02T02:26:32.915Z,13.46
2023-05-02T02:29:35.238Z,13.47
2023-05-02T02:32:37.484Z,13.46
2023-05-02T02:35:48.402Z,13.55
2023-05-02T02:39:06.487Z,13.43
2023-05-02T02:42:25.595Z,13.46
2023-05-02T02:45:35.309Z,13.55
2023-05-02T02:48:42.361Z,13.47
2023-05-02T02:52:10.587Z,13.42
2023-05-02T02:55:25.956Z,13.40
2023-05-02T02:58:46.174Z,13.37
2023-05-02T03:01:58.012Z,13.26
2023-05-02T03:05:02.171Z,13.20
2023-05-02T03:08:05.200Z,13.20
2023-05-02T03:11:14.419Z,13.22
2023-05-02T03:14:17.350Z,13.19
2023-05-02T03:17:19.634Z,13.20
2023-05-02T03:20:22.689Z,13.22
2023-05-02T03:23:25.207Z,13.16
2023-05-02T03:26:29.823Z,13.17
2023-05-02T03:29:32.528Z,13.17
2023-05-02T03:32:34.824Z,13.19
2023-05-02T03:35:42.769Z,13.16
2023-05-02T03:38:46.563Z,13.14
2023-05-02T03:41:49.814Z,13.16
2023-05-02T03:44:55.635Z,13.19
2023-05-02T03:47:58.840Z,13.26
2023-05-02T03:51:02.982Z,13.34
2023-05-02T03:54:06.180Z,13.30
2023-05-02T03:57:09.364Z,13.30
2023-05-02T04:00:12.249Z,13.28
2023-05-02T04:03:14.514Z,13.27
2023-05-02T04:06:19.777Z,13.33
2023-05-02T04:09:28.486Z,13.33
2023-05-02T04:12:36.274Z,13.33
2023-05-02T04:15:39.068Z,13.34
2023-05-02T04:18:42.168Z,13.44
2023-05-02T04:21:45.793Z,13.46
2023-05-02T04:24:48.945Z,13.48
2023-05-02T04:27:51.576Z,13.44
2023-05-02T04:30:57.768Z,13.50
2023-05-02T04:34:01.803Z,13.47
2023-05-02T04:37:09.251Z,13.51
2023-05-02T04:40:12.588Z,13.54
2023-05-02T04:43:15.544Z,13.57
2023-05-02T04:46:23.879Z,13.64
2023-05-02T04:49:26.838Z,13.67
2023-05-02T04:52:30.419Z,13.70
2023-05-02T04:55:32.961Z,13.78
2023-05-02T04:58:35.471Z,13.84
2023-05-02T05:01:40.921Z,13.95
2023-05-02T05:04:46.071Z,14.08
2023-05-02T05:07:49.038Z,14.15
2023-05-02T05:10:53.032Z,14.26
2023-05-02T05:13:57.220Z,14.36
2023-05-02T05:17:01.102Z,14.49
2023-05-02T05:20:04.386Z,14.60
2023-05-02T05:23:07.273Z,14.76
2023-05-02T05:26:18.047Z,15.01
2023-05-02T05:29:23.194Z,15.06
2023-05-02T05:32:26.148Z,15.30
2023-05-02T05:35:29.072Z,15.42
2023-05-02T05:38:33.989Z,15.57
2023-05-02T05:41:36.742Z,15.65
2023-05-02T05:44:41.764Z,15.70
2023-05-02T05:47:44.934Z,15.62
2023-05-02T05:50:47.886Z,15.69
2023-05-02T05:53:50.209Z,15.79
2023-05-02T05:56:53.054Z,16.00
2023-05-02T05:59:56.101Z,15.90
2023-05-02T06:02:58.720Z,15.89
2023-05-02T06:06:04.624Z,15.93
2023-05-02T06:09:07.100Z,15.96
2023-05-02T06:12:09.531Z,16.44
2023-05-02T06:15:13.623Z,16.84
2023-05-02T06:18:16.916Z,16.84
2023-05-02T06:21:19.353Z,17.23
2023-05-02T06:24:21.742Z,17.40
2023-05-02T06:27:24.008Z,17.63
2023-05-02T06:30:26.946Z,17.83
2023-05-02T06:33:30.761Z,18.12
2023-05-02T06:36:33.038Z,18.15
2023-05-02T06:39:35.485Z,18.42
2023-05-02T06:42:38.066Z,18.56
2023-05-02T06:45:40.955Z,18.53
2023-05-02T06:48:43.300Z,18.92
2023-05-02T06:51:45.566Z,19.13
2023-05-02T06:54:47.949Z,19.31
2023-05-02T06:57:50.991Z,19.35
2023-05-02T07:00:53.342Z,19.40
2023-05-02T07:03:55.848Z,19.68
2023-05-02T07:06:58.368Z,19.96
2023-05-02T07:10:00.910Z,20.01
2023-05-02T07:13:03.830Z,19.74
2023-05-02T07:16:06.833Z,19.96
2023-05-02T07:19:09.146Z,20.26
2023-05-02T07:22:11.463Z,20.50
2023-05-02T07:25:13.794Z,20.53
2023-05-02T07:28:15.995Z,20.42
2023-05-02T07:31:19.032Z,20.50
2023-05-02T07:34:21.486Z,20.45
2023-05-02T07:37:23.934Z,20.79
2023-05-02T07:40:26.330Z,20.88
2023-05-02T07:43:28.669Z,21.05
2023-05-02T07:46:31.738Z,21.28
2023-05-02T07:49:34.032Z,21.45
2023-05-02T07:52:36.305Z,20.95
2023-05-02T07:55:38.588Z,21.10
2023-05-02T07:58:40.945Z,21.30
2023-05-02T08:01:43.342Z,21.66
2023-05-02T08:04:47.832Z,21.55
2023-05-02T08:07:50.549Z,21.45
2023-05-02T08:10:52.872Z,21.58
2023-05-02T08:13:55.598Z,21.28
2023-05-02T08:16:58.701Z,21.14
2023-05-02T08:20:04.156Z,21.27
2023-05-02T08:23:06.462Z,21.79
2023-05-02T08:26:08.802Z,22.00
2023-05-02T08:29:12.656Z,21.96
2023-05-02T08:32:14.987Z,22.30
2023-05-02T08:35:17.362Z,22.65
2023-05-02T08:38:19.630Z,22.74
2023-05-02T08:41:22.824Z,22.71
2023-05-02T08:44:25.404Z,22.64
2023-05-02T08:47:29.918Z,22.09
2023-05-02T08:50:33.538Z,23.02
2023-05-02T08:53:37.087Z,23.16
2023-05-02T08:56:39.468Z,22.94
2023-05-02T08:59:42.990Z,22.68
2023-05-02T09:03:11.671Z,22.87
2023-05-02T09:06:16.374Z,22.67
2023-05-02T09:09:19.505Z,22.51
2023-05-02T09:12:26.502Z,22.24
2023-05-02T09:15:28.893Z,22.97
2023-05-02T09:18:40.392Z,22.92
2023-05-02T09:21:43.372Z,24.00
2023-05-02T09:24:55.033Z,24.85
2023-05-02T09:27:58.955Z,23.97
2023-05-02T09:31:09.427Z,23.52
2023-05-02T09:34:13.784Z,23.92
2023-05-02T09:37:34.924Z,23.77
2023-05-02T09:40:38.078Z,24.75
2023-05-02T09:43:41.305Z,24.35
2023-05-02T09:46:48.032Z,24.21
2023-05-02T09:49:50.479Z,24.28
2023-05-02T09:53:09.851Z,24.98
2023-05-02T09:56:12.615Z,24.27
2023-05-02T09:59:16.910Z,24.52
2023-05-02T10:02:21.881Z,24.99
2023-05-02T10:05:24.948Z,24.95
2023-05-02T10:08:28.695Z,24.45
2023-05-02T10:11:32.569Z,24.20
2023-05-02T10:14:41.778Z,24.51
2023-05-02T10:17:49.197Z,24.64
2023-05-02T10:21:08.175Z,23.70
2023-05-02T10:24:12.040Z,23.05
2023-05-02T10:27:14.787Z,22.90
2023-05-02T10:30:17.711Z,22.67
2023-05-02T10:33:21.602Z,22.16
2023-05-02T10:36:24.040Z,22.07
2023-05-02T10:39:27.725Z,22.39
2023-05-02T10:42:30.723Z,22.75
2023-05-02T10:45:37.733Z,23.01
2023-05-02T10:48:40.203Z,22.63
2023-05-02T10:51:43.657Z,23.08
2023-05-02T10:54:46.312Z,22.57
2023-05-02T10:58:00.548Z,22.43
2023-05-02T11:01:38.005Z,22.47
2023-05-02T11:05:02.059Z,22.54
2023-05-02T11:08:19.391Z,22.39
2023-05-02T11:11:43.521Z,22.71
2023-05-02T11:14:47.740Z,22.58
2023-05-02T11:18:12.035Z,22.68
2023-05-02T11:21:32.846Z,23.29
2023-05-02T11:24:41.916Z,23.55
2023-05-02T11:27:46.331Z,23.38
2023-05-02T11:30:51.003Z,23.12
2023-05-02T11:34:03.871Z,22.87
2023-05-02T11:37:14.037Z,23.35
2023-05-02T11:40:16.585Z,23.38
2023-05-02T11:43:21.630Z,23.41
2023-05-02T11:46:24.072Z,23.50
2023-05-02T11:49:27.100Z,23.19
2023-05-02T11:52:30.775Z,23.46
2023-05-02T11:55:33.059Z,24.18
2023-05-02T11:58:35.462Z,24.18
2023-05-02T12:01:47.114Z,24.34
2023-05-02T12:04:49.541Z,24.39
2023-05-02T12:07:51.850Z,23.87
2023-05-02T12:10:56.022Z,24.06
2023-05-02T12:13:58.316Z,24.07
2023-05-02T12:17:06.890Z,24.32
2023-05-02T12:20:12.689Z,24.49
2023-05-02T12:23:15.232Z,24.65
2023-05-02T12:26:22.509Z,24.68
2023-05-02T12:29:38.506Z,24.75
2023-05-02T12:32:45.468Z,24.45
2023-05-02T12:35:48.157Z,23.80
2023-05-02T12:38:59.480Z,24.06
2023-05-02T12:42:12.569Z,23.35
2023-05-02T12:45:18.205Z,22.87
2023-05-02T12:48:26.161Z,23.38
2023-05-02T12:51:28.906Z,23.26
2023-05-02T12:54:31.444Z,23.33
2023-05-02T12:57:33.963Z,23.33
2023-05-02T13:00:38.722Z,23.26
2023-05-02T13:03:42.403Z,23.43
2023-05-02T13:06:46.895Z,23.49
2023-05-02T13:09:49.392Z,23.39
2023-05-02T13:12:52.685Z,23.01
2023-05-02T13:15:55.169Z,22.92
2023-05-02T13:18:57.603Z,22.60
2023-05-02T13:22:00.173Z,22.67
2023-05-02T13:25:02.706Z,22.58
2023-05-02T13:28:04.989Z,22.47
2023-05-02T13:31:07.931Z,22.56
2023-05-02T13:34:10.201Z,22.44
2023-05-02T13:37:12.447Z,22.29
2023-05-02T13:40:14.790Z,22.34
2023-05-02T13:43:17.179Z,22.23
2023-05-02T13:46:19.537Z,22.24
2023-05-02T13:49:22.129Z,21.86
2023-05-02T13:52:29.343Z,22.07
2023-05-02T13:55:31.716Z,22.02
2023-05-02T13:58:33.916Z,22.03
2023-05-02T14:01:36.352Z,22.03
2023-05-02T14:04:38.718Z,21.97
2023-05-02T14:07:40.969Z,21.81
2023-05-02T14:10:43.265Z,21.99
2023-05-02T14:13:45.741Z,21.89
2023-05-02T14:16:50.268Z,21.96
2023-05-02T14:19:53.032Z,21.96
2023-05-02T14:22:57.954Z,22.02
2023-05-02T14:26:01.582Z,21.90
2023-05-02T14:29:03.824Z,21.96
2023-05-02T14:32:07.037Z,21.93
2023-05-02T14:35:10.158Z,21.88
2023-05-02T14:38:12.483Z,21.82
2023-05-02T14:41:15.726Z,21.90
2023-05-02T14:44:18.441Z,22.00
2023-05-02T14:47:21.034Z,21.81
2023-05-02T14:50:23.290Z,21.66
2023-05-02T14:53:25.615Z,21.71
2023-05-02T14:56:28.224Z,21.63
2023-05-02T14:59:31.461Z,21.90
2023-05-02T15:02:34.830Z,22.03
2023-05-02T15:05:37.261Z,22.03
2023-05-02T15:08:39.900Z,22.02
2023-05-02T15:11:42.701Z,21.90
2023-05-02T15:14:44.973Z,21.89
2023-05-02T15:17:47.232Z,21.95
2023-05-02T15:20:49.477Z,21.82
2023-05-02T15:23:51.759Z,21.62
2023-05-02T15:26:54.084Z,21.63
2023-05-02T15:29:56.328Z,21.63
2023-05-02T15:32:58.624Z,21.66
2023-05-02T15:36:00.978Z,21.49
2023-05-02T15:39:04.475Z,21.63
2023-05-02T15:42:06.802Z,21.74
2023-05-02T15:45:11.868Z,21.71
2023-05-02T15:48:15.110Z,21.58
2023-05-02T15:51:17.853Z,21.49
2023-05-02T15:54:20.510Z,21.48
2023-05-02T15:57:23.081Z,21.32
2023-05-02T16:00:25.435Z,21.27
2023-05-02T16:03:27.860Z,21.24
2023-05-02T16:06:30.651Z,21.20
2023-05-02T16:09:33.091Z,21.20
2023-05-02T16:12:35.342Z,21.15
2023-05-02T16:15:39.449Z,21.20
2023-05-02T16:18:42.473Z,21.11
2023-05-02T16:21:44.946Z,20.87
2023-05-02T16:24:47.147Z,20.80
2023-05-02T16:27:49.401Z,20.67
2023-05-02T16:30:51.843Z,20.60
2023-05-02T16:33:54.676Z,20.64
2023-05-02T16:36:57.206Z,20.62
2023-05-02T16:40:01.004Z,20.46
2023-05-02T16:43:03.645Z,20.40
2023-05-02T16:46:06.949Z,20.36
2023-05-02T16:49:09.182Z,20.25
2023-05-02T16:52:11.477Z,20.04
2023-05-02T16:55:13.776Z,20.18
2023-05-02T16:58:16.350Z,20.15
2023-05-02T17:01:18.627Z,20.11
2023-05-02T17:04:21.591Z,20.04
2023-05-02T17:07:23.833Z,20.08
2023-05-02T17:10:26.232Z,19.92
2023-05-02T17:13:28.512Z,19.88
2023-05-02T17:16:30.855Z,19.92
2023-05-02T17:19:34.108Z,19.88
2023-05-02T17:22:37.711Z,19.86
2023-05-02T17:25:41.746Z,19.68
2023-05-02T17:28:44.546Z,19.58
2023-05-02T17:31:46.943Z,19.49
2023-05-02T17:34:49.747Z,19.43
2023-05-02T17:37:52.000Z,19.41
2023-05-02T17:40:54.308Z,19.34
2023-05-02T17:43:57.386Z,19.24
2023-05-02T17:46:59.621Z,19.44
2023-05-02T17:50:04.751Z,19.28
2023-05-02T17:53:08.253Z,19.17
2023-05-02T17:56:10.844Z,19.16
2023-05-02T17:59:13.210Z,19.09
2023-05-02T18:02:17.777Z,19.16
2023-05-02T18:05:20.118Z,18.99
2023-05-02T18:08:23.421Z,18.89
2023-05-02T18:11:27.257Z,18.88
2023-05-02T18:14:29.546Z,18.85
2023-05-02T18:17:32.135Z,18.72
2023-05-02T18:20:43.188Z,18.69
2023-05-02T18:23:46.670Z,18.68
2023-05-02T18:26:49.290Z,18.65
2023-05-02T18:29:51.664Z,18.56
2023-05-02T18:32:53.890Z,18.59
2023-05-02T18:35:57.448Z,18.49
2023-05-02T18:39:00.422Z,18.49
2023-05-02T18:42:04.111Z,18.51
2023-05-02T18:45:06.849Z,18.47
2023-05-02T18:48:09.181Z,18.34
2023-05-02T18:51:11.416Z,18.37
2023-05-02T18:54:13.783Z,18.37
2023-05-02T18:57:16.086Z,18.38
2023-05-02T19:00:20.384Z,18.35
2023-05-02T19:03:23.944Z,18.37
2023-05-02T19:06:26.898Z,18.34
2023-05-02T19:09:29.151Z,18.28
2023-05-02T19:12:31.380Z,18.35
2023-05-02T19:15:34.275Z,18.42
2023-05-02T19:18:44.520Z,18.37
2023-05-02T19:21:48.098Z,18.41
2023-05-02T19:24:51.016Z,18.25
2023-05-02T19:27:55.863Z,18.14
2023-05-02T19:30:58.116Z,18.05
2023-05-02T19:34:00.479Z,17.97
2023-05-02T19:37:07.436Z,18.00
2023-05-02T19:40:10.950Z,17.81
2023-05-02T19:43:14.731Z,17.90
2023-05-02T19:46:18.575Z,17.79
2023-05-02T19:49:20.831Z,17.70
2023-05-02T19:52:23.099Z,17.53
2023-05-02T19:55:25.351Z,17.42
2023-05-02T19:58:28.435Z,17.50
2023-05-02T20:01:31.454Z,17.45
2023-05-02T20:04:33.784Z,17.52
2023-05-02T20:07:36.201Z,17.43
2023-05-02T20:10:39.401Z,17.54
2023-05-02T20:13:45.914Z,17.54
2023-05-02T20:16:48.249Z,17.40
2023-05-02T20:19:50.593Z,17.42
2023-05-02T20:22:56.827Z,17.53
2023-05-02T20:25:59.521Z,17.54
2023-05-02T20:29:03.538Z,17.39
2023-05-02T20:32:06.003Z,17.35
2023-05-02T20:35:09.361Z,17.36
2023-05-02T20:38:12.129Z,17.26
2023-05-02T20:41:14.993Z,17.32
2023-05-02T20:44:18.702Z,17.26
2023-05-02T20:47:21.412Z,17.18
2023-05-02T20:50:23.661Z,17.16
2023-05-02T20:53:25.933Z,17.08
2023-05-02T20:56:28.182Z,17.12
2023-05-02T20:59:30.476Z,16.98
2023-05-02T21:02:32.813Z,16.91
2023-05-02T21:05:35.237Z,16.94
2023-05-02T21:08:37.490Z,16.96
2023-05-02T21:11:40.603Z,16.89
2023-05-02T21:14:42.914Z,16.72
2023-05-02T21:17:45.119Z,16.58
2023-05-02T21:20:48.931Z,16.68
2023-05-02T21:23:51.406Z,16.74
2023-05-02T21:26:53.602Z,16.68
2023-05-02T21:29:55.853Z,16.67
2023-05-02T21:32:58.093Z,16.71
2023-05-02T21:36:00.454Z,16.71
2023-05-02T21:39:02.777Z,16.68
2023-05-02T21:42:05.187Z,16.72
2023-05-02T21:45:08.120Z,16.68
2023-05-02T21:48:10.562Z,16.63
2023-05-02T21:51:14.115Z,16.67
2023-05-02T21:54:16.533Z,16.58
2023-05-02T21:57:19.237Z,16.41
2023-05-02T22:00:21.735Z,16.34
2023-05-02T22:03:25.339Z,16.31
2023-05-02T22:06:28.510Z,16.48
2023-05-02T22:09:33.205Z,16.33
2023-05-02T22:12:36.424Z,16.16
2023-05-02T22:15:43.228Z,16.17
2023-05-02T22:18:45.509Z,16.21
2023-05-02T22:21:47.745Z,16.14
2023-05-02T22:24:50.026Z,16.16
2023-05-02T22:27:52.319Z,16.12
2023-05-02T22:30:54.958Z,16.07
2023-05-02T22:33:57.218Z,16.03
2023-05-02T22:36:59.549Z,16.05
2023-05-02T22:40:02.373Z,16.16
2023-05-02T22:43:04.748Z,16.06
2023-05-02T22:46:07.160Z,15.93
2023-05-02T22:49:11.884Z,16.03
2023-05-02T22:52:14.557Z,16.05
2023-05-02T22:55:16.836Z,15.97
2023-05-02T22:58:25.668Z,16.00
2023-05-02T23:01:28.174Z,16.09
2023-05-02T23:04:32.964Z,16.12
2023-05-02T23:07:35.487Z,16.10
2023-05-02T23:10:37.744Z,16.10
2023-05-02T23:13:39.959Z,16.06
2023-05-02T23:16:42.222Z,16.05
2023-05-02T23:19:44.538Z,16.06
2023-05-02T23:22:46.835Z,16.10
2023-05-02T23:25:49.284Z,16.07
2023-05-02T23:28:51.523Z,16.03
2023-05-02T23:31:54.685Z,16.00
2023-05-02T23:34:57.141Z,15.97
2023-05-02T23:38:05.953Z,15.89
2023-05-02T23:41:08.574Z,15.99
2023-05-02T23:44:10.774Z,15.92
2023-05-02T23:47:13.120Z,15.90
2023-05-02T23:50:15.435Z,15.93
2023-05-02T23:53:17.745Z,15.92
2023-05-02T23:56:21.142Z,15.85
2023-05-02T23:59:23.610Z,15.68
